sensor_id;sensor_type;location;lat;lon;timestamp;P1;durP1;ratioP1;P2;durP2;ratioP2
12363;SDS011;6246;50.826;4.712;2023-04-06T00:00:12;5.03;;;3.80;;
12363;SDS011;6246;50.826;4.712;2023-04-06T00:02:39;4.13;;;3.73;;
12363;SDS011;6246;50.826;4.712;2023-04-06T00:05:05;5.83;;;3.90;;
12363;SDS011;6246;50.826;4.712;2023-04-06T00:07:31;4.53;;;4.13;;
12363;SDS011;6246;50.826;4.712;2023-04-06T00:09:58;5.27;;;4.00;;
12363;SDS011;6246;50.826;4.712;2023-04-06T00:12:24;3.73;;;3.43;;
12363;SDS011;6246;50.826;4.712;2023-04-06T00:14:50;4.47;;;3.90;;
12363;SDS011;6246;50.826;4.712;2023-04-06T00:17:17;4.20;;;3.80;;
12363;SDS011;6246;50.826;4.712;2023-04-06T00:19:43;4.13;;;3.77;;
12363;SDS011;6246;50.826;4.712;2023-04-06T00:22:09;4.17;;;3.63;;
12363;SDS011;6246;50.826;4.712;2023-04-06T00:24:35;4.90;;;3.80;;
12363;SDS011;6246;50.826;4.712;2023-04-06T00:27:02;3.93;;;3.53;;
12363;SDS011;6246;50.826;4.712;2023-04-06T00:29:28;4.67;;;4.07;;
12363;SDS011;6246;50.826;4.712;2023-04-06T00:31:54;3.97;;;3.67;;
12363;SDS011;6246;50.826;4.712;2023-04-06T00:34:20;4.10;;;3.70;;
12363;SDS011;6246;50.826;4.712;2023-04-06T00:36:46;4.10;;;3.70;;
12363;SDS011;6246;50.826;4.712;2023-04-06T00:39:12;4.67;;;4.27;;
12363;SDS011;6246;50.826;4.712;2023-04-06T00:41:38;4.10;;;3.80;;
12363;SDS011;6246;50.826;4.712;2023-04-06T00:44:05;4.47;;;4.00;;
12363;SDS011;6246;50.826;4.712;2023-04-06T00:46:31;4.43;;;3.70;;
12363;SDS011;6246;50.826;4.712;2023-04-06T00:48:57;4.03;;;3.63;;
12363;SDS011;6246;50.826;4.712;2023-04-06T00:51:23;4.20;;;3.80;;
12363;SDS011;6246;50.826;4.712;2023-04-06T00:53:50;4.30;;;3.90;;
12363;SDS011;6246;50.826;4.712;2023-04-06T00:56:16;4.07;;;3.67;;
12363;SDS011;6246;50.826;4.712;2023-04-06T00:58:42;4.27;;;3.43;;
12363;SDS011;6246;50.826;4.712;2023-04-06T01:01:08;4.20;;;3.80;;
12363;SDS011;6246;50.826;4.712;2023-04-06T01:03:34;3.87;;;3.57;;
12363;SDS011;6246;50.826;4.712;2023-04-06T01:06:00;5.00;;;4.10;;
12363;SDS011;6246;50.826;4.712;2023-04-06T01:08:26;6.70;;;4.10;;
12363;SDS011;6246;50.826;4.712;2023-04-06T01:10:52;4.47;;;4.07;;
12363;SDS011;6246;50.826;4.712;2023-04-06T01:13:18;4.00;;;3.60;;
12363;SDS011;6246;50.826;4.712;2023-04-06T01:15:45;5.47;;;4.00;;
12363;SDS011;6246;50.826;4.712;2023-04-06T01:18:12;4.57;;;3.60;;
12363;SDS011;6246;50.826;4.712;2023-04-06T01:20:38;4.60;;;4.03;;
12363;SDS011;6246;50.826;4.712;2023-04-06T01:23:04;4.67;;;4.27;;
12363;SDS011;6246;50.826;4.712;2023-04-06T01:25:30;5.63;;;3.90;;
12363;SDS011;6246;50.826;4.712;2023-04-06T01:27:56;4.10;;;3.70;;
12363;SDS011;6246;50.826;4.712;2023-04-06T01:30:22;5.00;;;4.20;;
12363;SDS011;6246;50.826;4.712;2023-04-06T01:32:48;4.23;;;3.83;;
12363;SDS011;6246;50.826;4.712;2023-04-06T01:35:14;4.57;;;4.17;;
12363;SDS011;6246;50.826;4.712;2023-04-06T01:37:40;3.77;;;3.47;;
12363;SDS011;6246;50.826;4.712;2023-04-06T01:40:06;5.10;;;3.80;;
12363;SDS011;6246;50.826;4.712;2023-04-06T01:42:32;4.33;;;3.83;;
12363;SDS011;6246;50.826;4.712;2023-04-06T01:44:59;4.20;;;3.60;;
12363;SDS011;6246;50.826;4.712;2023-04-06T01:47:25;3.87;;;3.57;;
12363;SDS011;6246;50.826;4.712;2023-04-06T01:49:51;4.20;;;3.80;;
12363;SDS011;6246;50.826;4.712;2023-04-06T01:52:17;4.93;;;3.70;;
12363;SDS011;6246;50.826;4.712;2023-04-06T01:54:43;4.07;;;3.67;;
12363;SDS011;6246;50.826;4.712;2023-04-06T01:57:10;4.70;;;3.93;;
12363;SDS011;6246;50.826;4.712;2023-04-06T01:59:36;4.10;;;3.70;;
12363;SDS011;6246;50.826;4.712;2023-04-06T02:02:02;4.23;;;3.80;;
12363;SDS011;6246;50.826;4.712;2023-04-06T02:04:28;4.43;;;3.77;;
12363;SDS011;6246;50.826;4.712;2023-04-06T02:06:54;4.30;;;3.90;;
12363;SDS011;6246;50.826;4.712;2023-04-06T02:09:20;4.43;;;3.77;;
12363;SDS011;6246;50.826;4.712;2023-04-06T02:11:46;4.13;;;3.80;;
12363;SDS011;6246;50.826;4.712;2023-04-06T02:14:12;3.60;;;3.30;;
12363;SDS011;6246;50.826;4.712;2023-04-06T02:16:38;4.63;;;3.57;;
12363;SDS011;6246;50.826;4.712;2023-04-06T02:19:04;4.10;;;3.70;;
12363;SDS011;6246;50.826;4.712;2023-04-06T02:21:31;4.50;;;4.00;;
12363;SDS011;6246;50.826;4.712;2023-04-06T02:23:57;5.07;;;3.70;;
12363;SDS011;6246;50.826;4.712;2023-04-06T02:26:23;4.40;;;3.90;;
12363;SDS011;6246;50.826;4.712;2023-04-06T02:28:49;4.37;;;3.90;;
12363;SDS011;6246;50.826;4.712;2023-04-06T02:31:15;4.10;;;3.70;;
12363;SDS011;6246;50.826;4.712;2023-04-06T02:33:41;5.00;;;3.50;;
12363;SDS011;6246;50.826;4.712;2023-04-06T02:36:07;3.97;;;3.67;;
12363;SDS011;6246;50.826;4.712;2023-04-06T02:38:33;3.77;;;3.40;;
12363;SDS011;6246;50.826;4.712;2023-04-06T02:40:59;4.10;;;3.63;;
12363;SDS011;6246;50.826;4.712;2023-04-06T02:43:25;3.83;;;3.53;;
12363;SDS011;6246;50.826;4.712;2023-04-06T02:45:51;4.33;;;3.93;;
12363;SDS011;6246;50.826;4.712;2023-04-06T02:48:17;4.07;;;3.67;;
12363;SDS011;6246;50.826;4.712;2023-04-06T02:50:43;4.17;;;3.77;;
12363;SDS011;6246;50.826;4.712;2023-04-06T02:53:10;5.07;;;4.00;;
12363;SDS011;6246;50.826;4.712;2023-04-06T02:55:36;4.17;;;3.40;;
12363;SDS011;6246;50.826;4.712;2023-04-06T02:58:02;3.80;;;3.37;;
12363;SDS011;6246;50.826;4.712;2023-04-06T03:00:28;3.87;;;3.57;;
12363;SDS011;6246;50.826;4.712;2023-04-06T03:02:54;4.17;;;3.77;;
12363;SDS011;6246;50.826;4.712;2023-04-06T03:05:20;3.70;;;3.40;;
12363;SDS011;6246;50.826;4.712;2023-04-06T03:07:46;4.10;;;3.60;;
12363;SDS011;6246;50.826;4.712;2023-04-06T03:10:12;4.23;;;3.50;;
12363;SDS011;6246;50.826;4.712;2023-04-06T03:12:38;4.13;;;3.73;;
12363;SDS011;6246;50.826;4.712;2023-04-06T03:15:06;3.77;;;3.47;;
12363;SDS011;6246;50.826;4.712;2023-04-06T03:17:32;4.20;;;3.53;;
12363;SDS011;6246;50.826;4.712;2023-04-06T03:19:58;3.70;;;3.40;;
12363;SDS011;6246;50.826;4.712;2023-04-06T03:22:25;3.63;;;3.33;;
12363;SDS011;6246;50.826;4.712;2023-04-06T03:24:51;5.00;;;3.30;;
12363;SDS011;6246;50.826;4.712;2023-04-06T03:27:17;3.70;;;3.40;;
12363;SDS011;6246;50.826;4.712;2023-04-06T03:29:43;3.77;;;3.47;;
12363;SDS011;6246;50.826;4.712;2023-04-06T03:32:09;3.53;;;3.20;;
12363;SDS011;6246;50.826;4.712;2023-04-06T03:34:35;4.00;;;3.60;;
12363;SDS011;6246;50.826;4.712;2023-04-06T03:37:01;4.37;;;3.97;;
12363;SDS011;6246;50.826;4.712;2023-04-06T03:39:27;4.00;;;3.60;;
12363;SDS011;6246;50.826;4.712;2023-04-06T03:41:53;4.50;;;3.47;;
12363;SDS011;6246;50.826;4.712;2023-04-06T03:44:19;3.70;;;3.40;;
12363;SDS011;6246;50.826;4.712;2023-04-06T03:46:45;4.00;;;3.57;;
12363;SDS011;6246;50.826;4.712;2023-04-06T03:49:11;3.97;;;3.53;;
12363;SDS011;6246;50.826;4.712;2023-04-06T03:51:37;3.97;;;3.57;;
12363;SDS011;6246;50.826;4.712;2023-04-06T03:54:03;4.23;;;3.57;;
12363;SDS011;6246;50.826;4.712;2023-04-06T03:56:29;3.83;;;3.53;;
12363;SDS011;6246;50.826;4.712;2023-04-06T03:58:55;4.03;;;3.73;;
12363;SDS011;6246;50.826;4.712;2023-04-06T04:01:21;3.70;;;3.33;;
12363;SDS011;6246;50.826;4.712;2023-04-06T04:03:47;4.10;;;3.70;;
12363;SDS011;6246;50.826;4.712;2023-04-06T04:06:14;4.00;;;3.37;;
12363;SDS011;6246;50.826;4.712;2023-04-06T04:08:40;3.80;;;3.50;;
12363;SDS011;6246;50.826;4.712;2023-04-06T04:11:06;4.63;;;3.80;;
12363;SDS011;6246;50.826;4.712;2023-04-06T04:13:32;4.00;;;3.50;;
12363;SDS011;6246;50.826;4.712;2023-04-06T04:15:58;4.97;;;4.03;;
12363;SDS011;6246;50.826;4.712;2023-04-06T04:18:24;4.53;;;3.80;;
12363;SDS011;6246;50.826;4.712;2023-04-06T04:20:50;4.17;;;3.77;;
12363;SDS011;6246;50.826;4.712;2023-04-06T04:23:17;4.87;;;3.93;;
12363;SDS011;6246;50.826;4.712;2023-04-06T04:25:43;3.50;;;3.20;;
12363;SDS011;6246;50.826;4.712;2023-04-06T04:28:09;3.83;;;3.53;;
12363;SDS011;6246;50.826;4.712;2023-04-06T04:30:35;3.60;;;3.30;;
12363;SDS011;6246;50.826;4.712;2023-04-06T04:33:01;4.63;;;3.43;;
12363;SDS011;6246;50.826;4.712;2023-04-06T04:35:27;3.87;;;3.50;;
12363;SDS011;6246;50.826;4.712;2023-04-06T04:37:53;4.43;;;3.57;;
12363;SDS011;6246;50.826;4.712;2023-04-06T04:40:19;3.90;;;3.50;;
12363;SDS011;6246;50.826;4.712;2023-04-06T04:42:45;4.10;;;3.70;;
12363;SDS011;6246;50.826;4.712;2023-04-06T04:45:11;4.30;;;3.53;;
12363;SDS011;6246;50.826;4.712;2023-04-06T04:47:38;4.40;;;3.50;;
12363;SDS011;6246;50.826;4.712;2023-04-06T04:50:04;4.03;;;3.63;;
12363;SDS011;6246;50.826;4.712;2023-04-06T04:52:30;3.87;;;3.57;;
12363;SDS011;6246;50.826;4.712;2023-04-06T04:54:56;3.97;;;3.67;;
12363;SDS011;6246;50.826;4.712;2023-04-06T04:57:22;4.20;;;3.80;;
12363;SDS011;6246;50.826;4.712;2023-04-06T04:59:48;3.70;;;3.40;;
12363;SDS011;6246;50.826;4.712;2023-04-06T05:02:15;4.27;;;3.73;;
12363;SDS011;6246;50.826;4.712;2023-04-06T05:04:41;4.37;;;3.87;;
12363;SDS011;6246;50.826;4.712;2023-04-06T05:07:08;4.20;;;3.80;;
12363;SDS011;6246;50.826;4.712;2023-04-06T05:09:34;4.20;;;3.80;;
12363;SDS011;6246;50.826;4.712;2023-04-06T05:12:00;3.43;;;3.13;;
12363;SDS011;6246;50.826;4.712;2023-04-06T05:14:27;4.33;;;3.67;;
12363;SDS011;6246;50.826;4.712;2023-04-06T05:16:53;3.97;;;3.57;;
12363;SDS011;6246;50.826;4.712;2023-04-06T05:19:20;3.80;;;3.50;;
12363;SDS011;6246;50.826;4.712;2023-04-06T05:21:46;4.07;;;3.57;;
12363;SDS011;6246;50.826;4.712;2023-04-06T05:24:12;4.27;;;3.40;;
12363;SDS011;6246;50.826;4.712;2023-04-06T05:26:38;4.00;;;3.60;;
12363;SDS011;6246;50.826;4.712;2023-04-06T05:29:04;4.87;;;3.63;;
12363;SDS011;6246;50.826;4.712;2023-04-06T05:31:30;4.30;;;3.90;;
12363;SDS011;6246;50.826;4.712;2023-04-06T05:33:56;3.97;;;3.60;;
12363;SDS011;6246;50.826;4.712;2023-04-06T05:36:22;3.60;;;3.30;;
12363;SDS011;6246;50.826;4.712;2023-04-06T05:38:48;4.50;;;4.03;;
12363;SDS011;6246;50.826;4.712;2023-04-06T05:41:16;3.67;;;3.33;;
12363;SDS011;6246;50.826;4.712;2023-04-06T05:43:42;3.77;;;3.40;;
12363;SDS011;6246;50.826;4.712;2023-04-06T05:46:08;4.03;;;3.63;;
12363;SDS011;6246;50.826;4.712;2023-04-06T05:48:34;3.83;;;3.40;;
12363;SDS011;6246;50.826;4.712;2023-04-06T05:51:00;3.90;;;3.60;;
12363;SDS011;6246;50.826;4.712;2023-04-06T05:53:31;5.93;;;3.70;;
12363;SDS011;6246;50.826;4.712;2023-04-06T05:55:57;3.77;;;3.47;;
12363;SDS011;6246;50.826;4.712;2023-04-06T05:58:23;3.60;;;3.30;;
12363;SDS011;6246;50.826;4.712;2023-04-06T06:00:49;4.33;;;3.90;;
12363;SDS011;6246;50.826;4.712;2023-04-06T06:03:15;4.30;;;3.90;;
12363;SDS011;6246;50.826;4.712;2023-04-06T06:05:41;4.77;;;3.97;;
12363;SDS011;6246;50.826;4.712;2023-04-06T06:08:07;3.80;;;3.50;;
12363;SDS011;6246;50.826;4.712;2023-04-06T06:10:33;4.43;;;3.93;;
12363;SDS011;6246;50.826;4.712;2023-04-06T06:12:59;4.03;;;3.67;;
12363;SDS011;6246;50.826;4.712;2023-04-06T06:15:25;3.70;;;3.40;;
12363;SDS011;6246;50.826;4.712;2023-04-06T06:17:51;4.67;;;3.63;;
12363;SDS011;6246;50.826;4.712;2023-04-06T06:20:17;4.07;;;3.60;;
12363;SDS011;6246;50.826;4.712;2023-04-06T06:22:43;4.63;;;3.67;;
12363;SDS011;6246;50.826;4.712;2023-04-06T06:25:09;4.07;;;3.57;;
12363;SDS011;6246;50.826;4.712;2023-04-06T06:27:35;3.87;;;3.53;;
12363;SDS011;6246;50.826;4.712;2023-04-06T06:30:02;4.40;;;3.97;;
12363;SDS011;6246;50.826;4.712;2023-04-06T06:32:28;4.80;;;3.50;;
12363;SDS011;6246;50.826;4.712;2023-04-06T06:34:54;4.40;;;3.97;;
12363;SDS011;6246;50.826;4.712;2023-04-06T06:37:20;4.37;;;3.53;;
12363;SDS011;6246;50.826;4.712;2023-04-06T06:39:46;4.60;;;3.60;;
12363;SDS011;6246;50.826;4.712;2023-04-06T06:42:12;4.53;;;3.83;;
12363;SDS011;6246;50.826;4.712;2023-04-06T06:44:38;3.93;;;3.57;;
12363;SDS011;6246;50.826;4.712;2023-04-06T06:47:04;3.60;;;3.30;;
12363;SDS011;6246;50.826;4.712;2023-04-06T06:49:30;4.37;;;3.67;;
12363;SDS011;6246;50.826;4.712;2023-04-06T06:51:56;4.37;;;3.77;;
12363;SDS011;6246;50.826;4.712;2023-04-06T06:54:22;4.47;;;3.70;;
12363;SDS011;6246;50.826;4.712;2023-04-06T06:56:48;3.97;;;3.57;;
12363;SDS011;6246;50.826;4.712;2023-04-06T06:59:14;4.00;;;3.60;;
12363;SDS011;6246;50.826;4.712;2023-04-06T07:01:41;3.70;;;3.40;;
12363;SDS011;6246;50.826;4.712;2023-04-06T07:04:07;4.07;;;3.67;;
12363;SDS011;6246;50.826;4.712;2023-04-06T07:06:36;4.40;;;3.50;;
12363;SDS011;6246;50.826;4.712;2023-04-06T07:09:02;4.30;;;3.90;;
12363;SDS011;6246;50.826;4.712;2023-04-06T07:11:29;3.80;;;3.47;;
12363;SDS011;6246;50.826;4.712;2023-04-06T07:13:55;4.53;;;3.90;;
12363;SDS011;6246;50.826;4.712;2023-04-06T07:16:21;4.40;;;4.00;;
12363;SDS011;6246;50.826;4.712;2023-04-06T07:18:47;4.27;;;3.33;;
12363;SDS011;6246;50.826;4.712;2023-04-06T07:21:13;4.77;;;3.73;;
12363;SDS011;6246;50.826;4.712;2023-04-06T07:23:39;4.40;;;3.87;;
12363;SDS011;6246;50.826;4.712;2023-04-06T07:26:05;3.77;;;3.37;;
12363;SDS011;6246;50.826;4.712;2023-04-06T07:28:31;3.90;;;3.50;;
12363;SDS011;6246;50.826;4.712;2023-04-06T07:30:57;4.23;;;3.83;;
12363;SDS011;6246;50.826;4.712;2023-04-06T07:33:23;5.00;;;3.60;;
12363;SDS011;6246;50.826;4.712;2023-04-06T07:35:52;4.70;;;3.80;;
12363;SDS011;6246;50.826;4.712;2023-04-06T07:38:18;4.03;;;3.73;;
12363;SDS011;6246;50.826;4.712;2023-04-06T07:40:44;4.00;;;3.57;;
12363;SDS011;6246;50.826;4.712;2023-04-06T07:43:10;5.47;;;3.90;;
12363;SDS011;6246;50.826;4.712;2023-04-06T07:45:36;5.67;;;3.70;;
12363;SDS011;6246;50.826;4.712;2023-04-06T07:48:02;4.07;;;3.57;;
12363;SDS011;6246;50.826;4.712;2023-04-06T07:50:28;4.07;;;3.50;;
12363;SDS011;6246;50.826;4.712;2023-04-06T07:52:54;4.37;;;3.53;;
12363;SDS011;6246;50.826;4.712;2023-04-06T07:55:20;4.83;;;3.83;;
12363;SDS011;6246;50.826;4.712;2023-04-06T07:57:46;3.77;;;3.37;;
12363;SDS011;6246;50.826;4.712;2023-04-06T08:00:13;3.77;;;3.43;;
12363;SDS011;6246;50.826;4.712;2023-04-06T08:02:39;4.17;;;3.50;;
12363;SDS011;6246;50.826;4.712;2023-04-06T08:05:05;4.70;;;3.70;;
12363;SDS011;6246;50.826;4.712;2023-04-06T08:07:32;4.53;;;3.83;;
12363;SDS011;6246;50.826;4.712;2023-04-06T08:09:58;4.77;;;3.70;;
12363;SDS011;6246;50.826;4.712;2023-04-06T08:12:24;4.20;;;3.80;;
12363;SDS011;6246;50.826;4.712;2023-04-06T08:14:50;6.00;;;3.80;;
12363;SDS011;6246;50.826;4.712;2023-04-06T08:17:16;4.67;;;3.83;;
12363;SDS011;6246;50.826;4.712;2023-04-06T08:19:43;3.83;;;3.40;;
12363;SDS011;6246;50.826;4.712;2023-04-06T08:22:10;4.10;;;3.70;;
12363;SDS011;6246;50.826;4.712;2023-04-06T08:24:36;3.90;;;3.53;;
12363;SDS011;6246;50.826;4.712;2023-04-06T08:27:02;4.10;;;3.70;;
12363;SDS011;6246;50.826;4.712;2023-04-06T08:29:28;3.60;;;3.30;;
12363;SDS011;6246;50.826;4.712;2023-04-06T08:31:54;3.80;;;3.40;;
12363;SDS011;6246;50.826;4.712;2023-04-06T08:34:21;4.67;;;3.40;;
12363;SDS011;6246;50.826;4.712;2023-04-06T08:36:48;4.00;;;3.60;;
12363;SDS011;6246;50.826;4.712;2023-04-06T08:39:14;5.10;;;3.93;;
12363;SDS011;6246;50.826;4.712;2023-04-06T08:41:43;4.00;;;3.60;;
12363;SDS011;6246;50.826;4.712;2023-04-06T08:44:09;3.70;;;3.40;;
12363;SDS011;6246;50.826;4.712;2023-04-06T08:46:35;4.20;;;3.80;;
12363;SDS011;6246;50.826;4.712;2023-04-06T08:49:02;4.33;;;3.33;;
12363;SDS011;6246;50.826;4.712;2023-04-06T08:51:31;3.63;;;3.33;;
12363;SDS011;6246;50.826;4.712;2023-04-06T08:53:58;3.73;;;3.43;;
12363;SDS011;6246;50.826;4.712;2023-04-06T08:56:25;4.13;;;3.50;;
12363;SDS011;6246;50.826;4.712;2023-04-06T08:58:52;5.30;;;3.50;;
12363;SDS011;6246;50.826;4.712;2023-04-06T09:01:23;3.60;;;3.30;;
12363;SDS011;6246;50.826;4.712;2023-04-06T09:03:50;3.87;;;3.47;;
12363;SDS011;6246;50.826;4.712;2023-04-06T09:06:17;3.70;;;3.40;;
12363;SDS011;6246;50.826;4.712;2023-04-06T09:08:43;5.70;;;3.87;;
12363;SDS011;6246;50.826;4.712;2023-04-06T09:11:10;4.17;;;3.50;;
12363;SDS011;6246;50.826;4.712;2023-04-06T09:13:46;3.90;;;3.50;;
12363;SDS011;6246;50.826;4.712;2023-04-06T09:16:12;3.90;;;3.50;;
12363;SDS011;6246;50.826;4.712;2023-04-06T09:18:38;4.37;;;3.87;;
12363;SDS011;6246;50.826;4.712;2023-04-06T09:21:05;3.93;;;3.20;;
12363;SDS011;6246;50.826;4.712;2023-04-06T09:23:32;3.60;;;3.20;;
12363;SDS011;6246;50.826;4.712;2023-04-06T09:26:08;4.87;;;3.30;;
12363;SDS011;6246;50.826;4.712;2023-04-06T09:31:07;3.80;;;3.43;;
12363;SDS011;6246;50.826;4.712;2023-04-06T09:33:37;4.37;;;3.50;;
12363;SDS011;6246;50.826;4.712;2023-04-06T09:36:04;3.83;;;3.23;;
12363;SDS011;6246;50.826;4.712;2023-04-06T09:38:30;4.97;;;3.70;;
12363;SDS011;6246;50.826;4.712;2023-04-06T09:40:56;4.33;;;3.60;;
12363;SDS011;6246;50.826;4.712;2023-04-06T09:43:28;3.63;;;3.23;;
12363;SDS011;6246;50.826;4.712;2023-04-06T09:45:58;3.53;;;3.23;;
12363;SDS011;6246;50.826;4.712;2023-04-06T09:48:27;4.07;;;3.47;;
12363;SDS011;6246;50.826;4.712;2023-04-06T09:50:57;4.00;;;3.30;;
12363;SDS011;6246;50.826;4.712;2023-04-06T09:53:25;4.00;;;3.60;;
12363;SDS011;6246;50.826;4.712;2023-04-06T09:55:52;3.93;;;3.20;;
12363;SDS011;6246;50.826;4.712;2023-04-06T09:58:22;3.60;;;3.30;;
12363;SDS011;6246;50.826;4.712;2023-04-06T10:03:38;3.77;;;3.30;;
12363;SDS011;6246;50.826;4.712;2023-04-06T10:06:11;3.80;;;3.33;;
12363;SDS011;6246;50.826;4.712;2023-04-06T10:08:37;3.73;;;3.43;;
12363;SDS011;6246;50.826;4.712;2023-04-06T10:11:05;4.20;;;3.23;;
12363;SDS011;6246;50.826;4.712;2023-04-06T10:13:32;3.60;;;3.30;;
12363;SDS011;6246;50.826;4.712;2023-04-06T10:15:58;3.97;;;3.43;;
12363;SDS011;6246;50.826;4.712;2023-04-06T10:18:26;4.07;;;3.50;;
12363;SDS011;6246;50.826;4.712;2023-04-06T10:21:11;3.70;;;3.40;;
12363;SDS011;6246;50.826;4.712;2023-04-06T10:23:43;3.47;;;3.17;;
12363;SDS011;6246;50.826;4.712;2023-04-06T10:26:13;3.53;;;3.23;;
12363;SDS011;6246;50.826;4.712;2023-04-06T10:28:41;3.73;;;3.33;;
12363;SDS011;6246;50.826;4.712;2023-04-06T10:31:08;4.43;;;3.33;;
12363;SDS011;6246;50.826;4.712;2023-04-06T10:33:34;3.90;;;3.20;;
12363;SDS011;6246;50.826;4.712;2023-04-06T10:36:13;4.40;;;3.60;;
12363;SDS011;6246;50.826;4.712;2023-04-06T10:38:40;3.67;;;3.00;;
12363;SDS011;6246;50.826;4.712;2023-04-06T10:41:10;3.57;;;3.27;;
12363;SDS011;6246;50.826;4.712;2023-04-06T10:43:37;3.93;;;3.40;;
12363;SDS011;6246;50.826;4.712;2023-04-06T10:46:04;4.13;;;3.70;;
12363;SDS011;6246;50.826;4.712;2023-04-06T10:48:37;3.10;;;2.80;;
12363;SDS011;6246;50.826;4.712;2023-04-06T10:51:11;4.07;;;3.40;;
12363;SDS011;6246;50.826;4.712;2023-04-06T10:53:38;4.00;;;3.60;;
12363;SDS011;6246;50.826;4.712;2023-04-06T10:56:09;4.00;;;3.60;;
12363;SDS011;6246;50.826;4.712;2023-04-06T10:58:36;3.30;;;3.00;;
12363;SDS011;6246;50.826;4.712;2023-04-06T11:01:02;3.57;;;3.27;;
12363;SDS011;6246;50.826;4.712;2023-04-06T11:03:28;3.40;;;3.07;;
12363;SDS011;6246;50.826;4.712;2023-04-06T11:05:55;3.37;;;2.93;;
12363;SDS011;6246;50.826;4.712;2023-04-06T11:08:31;3.83;;;3.20;;
12363;SDS011;6246;50.826;4.712;2023-04-06T11:11:10;3.13;;;2.83;;
12363;SDS011;6246;50.826;4.712;2023-04-06T11:13:41;3.43;;;3.13;;
12363;SDS011;6246;50.826;4.712;2023-04-06T11:16:11;3.60;;;3.23;;
12363;SDS011;6246;50.826;4.712;2023-04-06T11:18:38;3.70;;;3.40;;
12363;SDS011;6246;50.826;4.712;2023-04-06T11:21:04;3.40;;;3.10;;
12363;SDS011;6246;50.826;4.712;2023-04-06T11:23:30;3.63;;;3.27;;
12363;SDS011;6246;50.826;4.712;2023-04-06T11:25:56;3.77;;;3.37;;
12363;SDS011;6246;50.826;4.712;2023-04-06T11:28:22;4.07;;;3.10;;
12363;SDS011;6246;50.826;4.712;2023-04-06T11:30:48;3.30;;;3.00;;
12363;SDS011;6246;50.826;4.712;2023-04-06T11:33:21;5.27;;;3.37;;
12363;SDS011;6246;50.826;4.712;2023-04-06T11:35:48;4.07;;;3.47;;
12363;SDS011;6246;50.826;4.712;2023-04-06T11:38:14;3.20;;;2.90;;
12363;SDS011;6246;50.826;4.712;2023-04-06T11:40:40;3.60;;;3.30;;
12363;SDS011;6246;50.826;4.712;2023-04-06T11:43:06;3.13;;;2.93;;
12363;SDS011;6246;50.826;4.712;2023-04-06T11:45:42;4.10;;;3.37;;
12363;SDS011;6246;50.826;4.712;2023-04-06T11:48:17;3.37;;;2.90;;
12363;SDS011;6246;50.826;4.712;2023-04-06T11:50:45;3.43;;;3.13;;
12363;SDS011;6246;50.826;4.712;2023-04-06T11:53:12;3.83;;;3.30;;
12363;SDS011;6246;50.826;4.712;2023-04-06T11:55:38;3.50;;;3.07;;
12363;SDS011;6246;50.826;4.712;2023-04-06T11:58:05;3.53;;;3.10;;
12363;SDS011;6246;50.826;4.712;2023-04-06T12:00:32;2.97;;;2.77;;
12363;SDS011;6246;50.826;4.712;2023-04-06T12:02:59;3.53;;;3.20;;
12363;SDS011;6246;50.826;4.712;2023-04-06T12:05:26;3.37;;;2.80;;
12363;SDS011;6246;50.826;4.712;2023-04-06T12:07:52;2.73;;;2.57;;
12363;SDS011;6246;50.826;4.712;2023-04-06T12:10:18;3.40;;;3.10;;
12363;SDS011;6246;50.826;4.712;2023-04-06T12:12:44;3.13;;;2.93;;
12363;SDS011;6246;50.826;4.712;2023-04-06T12:15:10;3.00;;;2.70;;
12363;SDS011;6246;50.826;4.712;2023-04-06T12:17:36;3.30;;;2.73;;
12363;SDS011;6246;50.826;4.712;2023-04-06T12:20:03;2.83;;;2.63;;
12363;SDS011;6246;50.826;4.712;2023-04-06T12:22:29;2.70;;;2.50;;
12363;SDS011;6246;50.826;4.712;2023-04-06T12:24:55;3.27;;;2.97;;
12363;SDS011;6246;50.826;4.712;2023-04-06T12:27:21;3.13;;;2.80;;
12363;SDS011;6246;50.826;4.712;2023-04-06T12:29:47;3.77;;;3.23;;
12363;SDS011;6246;50.826;4.712;2023-04-06T12:32:13;3.17;;;2.80;;
12363;SDS011;6246;50.826;4.712;2023-04-06T12:34:40;3.33;;;3.03;;
12363;SDS011;6246;50.826;4.712;2023-04-06T12:37:06;3.97;;;3.10;;
12363;SDS011;6246;50.826;4.712;2023-04-06T12:39:32;4.07;;;3.10;;
12363;SDS011;6246;50.826;4.712;2023-04-06T12:41:58;3.00;;;2.67;;
12363;SDS011;6246;50.826;4.712;2023-04-06T12:44:24;2.80;;;2.60;;
12363;SDS011;6246;50.826;4.712;2023-04-06T12:46:50;3.27;;;2.63;;
12363;SDS011;6246;50.826;4.712;2023-04-06T12:49:17;3.17;;;2.90;;
12363;SDS011;6246;50.826;4.712;2023-04-06T12:51:44;3.13;;;2.83;;
12363;SDS011;6246;50.826;4.712;2023-04-06T12:54:10;2.77;;;2.57;;
12363;SDS011;6246;50.826;4.712;2023-04-06T12:56:37;3.13;;;2.93;;
12363;SDS011;6246;50.826;4.712;2023-04-06T12:59:03;2.60;;;2.40;;
12363;SDS011;6246;50.826;4.712;2023-04-06T13:01:30;3.83;;;2.97;;
12363;SDS011;6246;50.826;4.712;2023-04-06T13:03:56;2.87;;;2.60;;
12363;SDS011;6246;50.826;4.712;2023-04-06T13:06:24;3.23;;;2.93;;
12363;SDS011;6246;50.826;4.712;2023-04-06T13:08:53;3.27;;;2.97;;
12363;SDS011;6246;50.826;4.712;2023-04-06T13:11:19;3.30;;;3.00;;
12363;SDS011;6246;50.826;4.712;2023-04-06T13:13:46;3.43;;;2.80;;
12363;SDS011;6246;50.826;4.712;2023-04-06T13:16:12;3.27;;;2.77;;
12363;SDS011;6246;50.826;4.712;2023-04-06T13:18:38;3.03;;;2.73;;
12363;SDS011;6246;50.826;4.712;2023-04-06T13:21:05;2.80;;;2.60;;
12363;SDS011;6246;50.826;4.712;2023-04-06T13:23:31;3.30;;;3.00;;
12363;SDS011;6246;50.826;4.712;2023-04-06T13:26:04;3.40;;;2.70;;
12363;SDS011;6246;50.826;4.712;2023-04-06T13:28:31;2.77;;;2.40;;
12363;SDS011;6246;50.826;4.712;2023-04-06T13:30:58;2.80;;;2.60;;
12363;SDS011;6246;50.826;4.712;2023-04-06T13:33:24;3.03;;;2.53;;
12363;SDS011;6246;50.826;4.712;2023-04-06T13:35:51;2.60;;;2.40;;
12363;SDS011;6246;50.826;4.712;2023-04-06T13:38:17;2.40;;;2.20;;
12363;SDS011;6246;50.826;4.712;2023-04-06T13:40:43;2.53;;;2.33;;
12363;SDS011;6246;50.826;4.712;2023-04-06T13:43:09;2.80;;;2.53;;
12363;SDS011;6246;50.826;4.712;2023-04-06T13:45:36;2.90;;;2.70;;
12363;SDS011;6246;50.826;4.712;2023-04-06T13:48:02;2.70;;;2.50;;
12363;SDS011;6246;50.826;4.712;2023-04-06T13:50:28;2.67;;;2.47;;
12363;SDS011;6246;50.826;4.712;2023-04-06T13:52:54;2.93;;;2.63;;
12363;SDS011;6246;50.826;4.712;2023-04-06T13:55:21;1.90;;;1.80;;
12363;SDS011;6246;50.826;4.712;2023-04-06T13:57:49;2.83;;;2.63;;
12363;SDS011;6246;50.826;4.712;2023-04-06T14:00:15;2.80;;;2.60;;
12363;SDS011;6246;50.826;4.712;2023-04-06T14:02:41;2.50;;;2.30;;
12363;SDS011;6246;50.826;4.712;2023-04-06T14:05:08;2.93;;;2.70;;
12363;SDS011;6246;50.826;4.712;2023-04-06T14:07:34;2.53;;;2.23;;
12363;SDS011;6246;50.826;4.712;2023-04-06T14:10:00;2.87;;;2.67;;
12363;SDS011;6246;50.826;4.712;2023-04-06T14:12:26;2.60;;;2.40;;
12363;SDS011;6246;50.826;4.712;2023-04-06T14:14:52;2.80;;;2.60;;
12363;SDS011;6246;50.826;4.712;2023-04-06T14:17:18;6.10;;;2.73;;
12363;SDS011;6246;50.826;4.712;2023-04-06T14:19:44;2.80;;;2.60;;
12363;SDS011;6246;50.826;4.712;2023-04-06T14:22:10;3.30;;;2.50;;
12363;SDS011;6246;50.826;4.712;2023-04-06T14:24:36;2.90;;;2.67;;
12363;SDS011;6246;50.826;4.712;2023-04-06T14:27:03;2.80;;;2.60;;
12363;SDS011;6246;50.826;4.712;2023-04-06T14:29:29;2.87;;;2.60;;
12363;SDS011;6246;50.826;4.712;2023-04-06T14:31:55;3.17;;;2.87;;
12363;SDS011;6246;50.826;4.712;2023-04-06T14:34:25;3.10;;;2.80;;
12363;SDS011;6246;50.826;4.712;2023-04-06T14:36:51;2.90;;;2.63;;
12363;SDS011;6246;50.826;4.712;2023-04-06T14:39:17;2.50;;;2.30;;
12363;SDS011;6246;50.826;4.712;2023-04-06T14:41:43;3.07;;;2.83;;
12363;SDS011;6246;50.826;4.712;2023-04-06T14:44:10;2.87;;;2.67;;
12363;SDS011;6246;50.826;4.712;2023-04-06T14:46:37;2.87;;;2.60;;
12363;SDS011;6246;50.826;4.712;2023-04-06T14:49:03;2.90;;;2.70;;
12363;SDS011;6246;50.826;4.712;2023-04-06T14:51:29;3.07;;;2.87;;
12363;SDS011;6246;50.826;4.712;2023-04-06T14:53:56;3.23;;;2.93;;
12363;SDS011;6246;50.826;4.712;2023-04-06T14:56:22;2.67;;;2.47;;
12363;SDS011;6246;50.826;4.712;2023-04-06T14:58:49;2.90;;;2.70;;
12363;SDS011;6246;50.826;4.712;2023-04-06T15:01:19;2.77;;;2.57;;